Time;durP1;ratioP1;P1;durP2;ratioP2;P2;SDS_P1;SDS_P2;PMS_P1;PMS_P2;Temp;Humidity;BMP_temperature;BMP_pressure;BME280_temperature;BME280_humidity;BME280_pressure;Samples;Min_cycle;Max_cycle;Signal;HPM_P1;HPM_P2
2020/12/02 00:00:57;;;;;;;11.17;7.30;;;;;;;-4.03;79.37;97033.84;5093443;28;20196;-84
2020/12/02 00:03:28;;;;;;;11.87;7.27;;;;;;;-4.10;79.16;97028.88;5093333;28;20215;-84
2020/12/02 00:05:57;;;;;;;13.83;11.27;;;;;;;-3.85;78.30;97028.06;5093070;28;20430;-84
2020/12/02 00:08:29;;;;;;;15.30;11.60;;;;;;;-3.89;77.90;97027.34;5093305;28;20205;-84
2020/12/02 00:10:57;;;;;;;16.37;13.07;;;;;;;-4.19;77.99;97034.34;5093664;28;20176;-84
2020/12/02 00:13:29;;;;;;;11.53;8.60;;;;;;;-3.99;78.14;97022.56;5092688;28;20661;-84
2020/12/02 00:15:56;;;;;;;10.37;7.60;;;;;;;-4.02;78.21;97030.38;5092977;28;20427;-84
2020/12/02 00:18:23;;;;;;;10.07;7.37;;;;;;;-4.14;78.54;97027.31;5093078;28;20649;-84
2020/12/02 00:20:50;;;;;;;9.93;7.00;;;;;;;-4.11;78.88;97026.38;5093041;28;20216;-84
2020/12/02 00:23:18;;;;;;;8.37;6.30;;;;;;;-4.31;78.54;97025.28;5092474;28;20204;-84
2020/12/02 00:25:45;;;;;;;9.97;7.33;;;;;;;-4.41;79.02;97031.59;5092717;28;20665;-84
2020/12/02 00:28:14;;;;;;;12.47;9.60;;;;;;;-4.53;79.74;97031.19;5093164;28;20223;-84
2020/12/02 00:30:43;;;;;;;12.10;9.23;;;;;;;-4.27;77.76;97028.59;5092693;28;20235;-84
2020/12/02 00:33:13;;;;;;;11.07;7.83;;;;;;;-4.41;78.14;97033.34;5092717;28;20212;-84
2020/12/02 00:35:40;;;;;;;13.77;9.80;;;;;;;-4.25;79.04;97031.13;5092408;28;20620;-83
2020/12/02 00:38:09;;;;;;;14.00;8.60;;;;;;;-4.23;78.81;97022.47;5092101;28;20243;-84
2020/12/02 00:40:36;;;;;;;12.77;8.43;;;;;;;-4.38;79.30;97028.94;5092678;28;20470;-84
2020/12/02 00:43:04;;;;;;;12.10;8.37;;;;;;;-4.39;79.60;97026.44;5092248;28;20442;-84
2020/12/02 00:45:31;;;;;;;20.90;13.03;;;;;;;-4.43;79.43;97022.31;5092592;28;20261;-84
2020/12/02 00:48:01;;;;;;;14.67;9.73;;;;;;;-4.25;78.72;97021.69;5092327;28;20200;-84
2020/12/02 00:50:27;;;;;;;10.03;6.90;;;;;;;-4.13;78.68;97023.84;5092162;28;20192;-84
2020/12/02 00:53:02;;;;;;;11.17;7.10;;;;;;;-4.27;78.30;97017.50;5092708;28;20286;-84
2020/12/02 00:55:29;;;;;;;11.90;9.17;;;;;;;-4.57;79.27;97023.56;5092454;28;20223;-84
2020/12/02 00:57:56;;;;;;;11.70;7.57;;;;;;;-4.48;79.29;97024.16;5092313;28;20196;-84
2020/12/02 01:00:26;;;;;;;9.43;6.67;;;;;;;-4.38;79.22;97015.28;5092540;28;20306;-84
2020/12/02 01:03:01;;;;;;;10.37;7.00;;;;;;;-4.23;78.97;97012.22;5091741;28;20196;-84
2020/12/02 01:05:30;;;;;;;9.80;7.40;;;;;;;-4.32;78.89;97012.53;5092366;28;20567;-84
2020/12/02 01:08:16;;;;;;;14.00;7.90;;;;;;;-4.16;78.23;97011.13;5091989;28;20204;-84
2020/12/02 01:10:44;;;;;;;9.47;7.10;;;;;;;-4.27;78.79;97014.94;5092497;28;20710;-84
2020/12/02 01:13:11;;;;;;;10.93;7.03;;;;;;;-4.41;79.49;97012.81;5092203;28;20231;-84
2020/12/02 01:15:38;;;;;;;8.87;6.47;;;;;;;-4.41;79.75;97012.81;5092358;28;20236;-84
2020/12/02 01:18:14;;;;;;;9.07;7.03;;;;;;;-4.67;79.61;97018.78;5091812;28;20257;-84
2020/12/02 01:20:42;;;;;;;7.67;5.77;;;;;;;-4.60;80.36;97018.53;5092580;28;20200;-84
2020/12/02 01:23:15;;;;;;;8.97;6.73;;;;;;;-4.49;80.11;97015.63;5092360;28;20196;-83
2020/12/02 01:25:42;;;;;;;8.23;6.90;;;;;;;-4.57;79.97;97009.91;5092151;28;20188;-83
2020/12/02 01:28:16;;;;;;;8.43;6.83;;;;;;;-4.48;79.23;96995.94;5091736;28;20533;-84
2020/12/02 01:30:43;;;;;;;9.80;8.50;;;;;;;-4.33;79.03;97005.69;5092263;28;20702;-84
2020/12/02 01:33:15;;;;;;;13.77;9.50;;;;;;;-4.38;79.42;96999.88;5092242;28;20569;-83
2020/12/02 01:35:45;;;;;;;13.03;9.70;;;;;;;-4.35;80.12;96998.06;5092268;28;20220;-84
2020/12/02 01:38:17;;;;;;;17.13;10.13;;;;;;;-4.23;79.35;97001.94;5092043;28;20279;-83
2020/12/02 01:40:44;;;;;;;10.73;8.67;;;;;;;-4.56;79.92;96997.03;5091946;28;20458;-84
2020/12/02 01:43:12;;;;;;;10.60;8.20;;;;;;;-4.42;79.08;97000.88;5091794;28;20249;-83
2020/12/02 01:45:41;;;;;;;12.00;8.87;;;;;;;-4.48;78.89;96996.78;5092023;28;20192;-84
2020/12/02 01:48:25;;;;;;;10.60;8.57;;;;;;;-4.60;78.54;96997.19;5091405;28;20226;-84
2020/12/02 01:51:01;;;;;;;13.93;9.47;;;;;;;-4.59;78.75;96989.41;5092040;28;20657;-84
2020/12/02 01:53:36;;;;;;;21.63;11.97;;;;;;;-4.65;77.55;96999.88;5091714;28;20242;-84
2020/12/02 01:56:11;;;;;;;22.80;15.97;;;;;;;-4.58;79.28;97001.34;5091906;28;20466;-83
2020/12/02 01:58:45;;;;;;;32.33;19.63;;;;;;;-4.58;78.91;96996.22;5091938;28;20529;-84
2020/12/02 02:01:20;;;;;;;29.93;17.70;;;;;;;-4.69;79.21;96993.16;5092029;28;20189;-84
2020/12/02 02:03:51;;;;;;;20.47;12.57;;;;;;;-4.59;78.68;96993.72;5091780;28;20490;-84
2020/12/02 02:06:22;;;;;;;106.53;54.87;;;;;;;-4.63;79.34;96990.41;5091771;28;20223;-84
2020/12/02 02:08:49;;;;;;;80.67;49.20;;;;;;;-4.66;79.07;96995.63;5091541;28;20883;-85
2020/12/02 02:11:20;;;;;;;59.17;41.37;;;;;;;-4.74;80.19;96995.03;5091999;28;20445;-84
2020/12/02 02:14:06;;;;;;;188.43;97.27;;;;;;;-4.87;79.91;96994.56;5091482;28;20521;-83
2020/12/02 02:16:36;;;;;;;93.13;48.27;;;;;;;-4.70;80.18;96994.06;5095626;28;20450;-84
2020/12/02 02:19:05;;;;;;;49.47;30.90;;;;;;;-4.87;80.08;96992.00;5095842;28;20307;-84
2020/12/02 02:21:35;;;;;;;30.90;20.23;;;;;;;-4.97;80.77;96993.16;5095201;28;20196;-83
2020/12/02 02:24:02;;;;;;;20.60;13.27;;;;;;;-4.67;81.01;96988.00;5095435;28;20192;-84
2020/12/02 02:26:34;;;;;;;16.47;10.63;;;;;;;-4.56;80.25;96988.50;5095074;28;20283;-83
2020/12/02 02:29:15;;;;;;;12.23;8.30;;;;;;;-4.47;79.86;96989.91;5095134;28;20422;-83
2020/12/02 02:31:50;;;;;;;12.03;7.97;;;;;;;-4.58;79.79;96983.41;5094826;28;20185;-83
2020/12/02 02:34:17;;;;;;;13.17;10.87;;;;;;;-4.64;79.46;96991.31;5095053;28;20434;-84
2020/12/02 02:36:45;;;;;;;9.93;7.63;;;;;;;-4.63;78.83;96989.56;5094577;28;20473;-84
2020/12/02 02:39:13;;;;;;;8.70;7.27;;;;;;;-4.67;77.37;96991.41;5095416;28;20581;-83
2020/12/02 02:41:42;;;;;;;9.03;5.77;;;;;;;-4.87;78.19;96988.59;5094931;28;20196;-84
2020/12/02 02:44:11;;;;;;;8.80;6.83;;;;;;;-5.00;79.20;96987.28;5094644;28;20196;-84
2020/12/02 02:46:38;;;;;;;13.03;10.40;;;;;;;-4.79;79.80;96987.47;5094708;28;20495;-83
2020/12/02 02:49:06;;;;;;;10.63;8.97;;;;;;;-4.59;78.58;96983.44;5094701;28;20733;-84
2020/12/02 02:51:33;;;;;;;15.00;10.77;;;;;;;-4.61;78.93;96982.66;5094506;28;20474;-83
2020/12/02 02:54:00;;;;;;;10.63;8.53;;;;;;;-4.65;78.48;96984.47;5094269;28;21083;-83
2020/12/02 02:56:27;;;;;;;11.10;8.17;;;;;;;-4.79;79.29;96984.91;5094444;28;20474;-83
2020/12/02 02:58:55;;;;;;;10.97;7.97;;;;;;;-4.75;79.22;96993.34;5094643;28;20196;-83
2020/12/02 03:01:22;;;;;;;13.77;9.53;;;;;;;-4.83;79.62;96993.59;5094807;28;20443;-84
2020/12/02 03:03:48;;;;;;;11.97;9.87;;;;;;;-4.82;80.28;96995.25;5094355;28;20287;-83
2020/12/02 03:06:15;;;;;;;10.47;8.50;;;;;;;-4.85;80.55;96992.81;5094594;28;20946;-84
2020/12/02 03:08:43;;;;;;;14.40;8.73;;;;;;;-4.74;80.53;97000.19;5094543;28;20536;-83
2020/12/02 03:11:14;;;;;;;79.47;29.57;;;;;;;-4.67;79.45;96996.53;5094285;28;20517;-84
2020/12/02 03:13:44;;;;;;;37.07;18.43;;;;;;;-4.81;78.37;96985.88;5093857;28;20437;-84
2020/12/02 03:16:22;;;;;;;86.97;31.77;;;;;;;-4.99;79.71;96994.09;5094312;28;20230;-84
2020/12/02 03:18:49;;;;;;;192.33;71.67;;;;;;;-5.03;79.53;96991.63;5094079;28;20550;-83
2020/12/02 03:21:19;;;;;;;123.73;48.57;;;;;;;-4.77;79.06;96992.56;5094066;28;20438;-84
2020/12/02 03:23:46;;;;;;;71.17;31.03;;;;;;;-4.84;78.91;96997.03;5093648;28;20987;-83
2020/12/02 03:26:14;;;;;;;46.13;21.67;;;;;;;-5.06;79.35;97004.56;5093743;28;20868;-83
2020/12/02 03:28:41;;;;;;;32.73;18.40;;;;;;;-5.16;79.90;97000.59;5093903;28;20474;-83
2020/12/02 03:31:12;;;;;;;25.97;14.13;;;;;;;-5.14;81.64;97005.66;5094048;28;20597;-83
2020/12/02 03:33:40;;;;;;;37.17;16.40;;;;;;;-5.10;80.73;97013.19;5093968;28;20446;-85
2020/12/02 03:36:07;;;;;;;23.97;13.07;;;;;;;-4.93;81.08;97004.16;5093665;28;20435;-83
2020/12/02 03:38:34;;;;;;;20.50;11.00;;;;;;;-4.69;81.55;97007.72;5093543;28;20196;-84
2020/12/02 03:41:00;;;;;;;14.67;7.90;;;;;;;-4.49;81.38;97014.78;5093471;28;20509;-84
2020/12/02 03:43:27;;;;;;;11.40;7.73;;;;;;;-4.41;81.65;97007.69;5093904;28;20200;-84
2020/12/02 03:45:54;;;;;;;12.57;8.83;;;;;;;-4.30;79.21;97011.56;5093474;28;20438;-81
2020/12/02 03:48:21;;;;;;;13.43;8.83;;;;;;;-4.36;78.70;97010.94;5093262;28;20196;-81
2020/12/02 03:50:49;;;;;;;41.10;26.43;;;;;;;-4.65;79.47;97014.41;5093212;28;20496;-84
2020/12/02 03:53:17;;;;;;;70.83;40.27;;;;;;;-4.55;79.14;97008.13;5093102;28;20197;-83
2020/12/02 03:55:44;;;;;;;64.60;40.10;;;;;;;-4.58;80.46;97014.19;5093397;28;20280;-81
2020/12/02 03:58:12;;;;;;;28.80;18.80;;;;;;;-4.66;80.78;97017.88;5093039;28;20849;-81
2020/12/02 04:00:39;;;;;;;11.73;9.07;;;;;;;-4.53;81.04;97016.63;5093312;28;20478;-81
2020/12/02 04:03:06;;;;;;;8.13;5.87;;;;;;;-4.38;80.41;97005.84;5093450;28;20200;-81
2020/12/02 04:05:33;;;;;;;6.77;5.33;;;;;;;-4.52;79.79;97009.75;5093238;28;20478;-81
2020/12/02 04:08:01;;;;;;;7.07;5.23;;;;;;;-4.49;80.33;97007.94;5092935;28;20470;-81
2020/12/02 04:10:28;;;;;;;11.70;6.73;;;;;;;-4.23;79.86;97007.06;5092990;28;20422;-82
2020/12/02 04:12:55;;;;;;;6.70;4.97;;;;;;;-4.37;79.07;97004.13;5092954;28;20230;-82
2020/12/02 04:15:23;;;;;;;7.00;5.07;;;;;;;-4.44;79.52;97012.91;5093247;28;20231;-82
2020/12/02 04:17:51;;;;;;;7.70;5.17;;;;;;;-4.29;79.18;97007.28;5092785;28;20464;-82
2020/12/02 04:20:20;;;;;;;13.17;8.57;;;;;;;-4.67;79.80;97017.06;5092794;28;20311;-82
2020/12/02 04:22:48;;;;;;;10.70;8.70;;;;;;;-4.89;79.53;97019.41;5092802;28;20197;-82
2020/12/02 04:25:17;;;;;;;11.70;9.43;;;;;;;-5.08;80.37;97021.69;5092955;28;20231;-82
2020/12/02 04:27:44;;;;;;;12.87;10.17;;;;;;;-5.72;82.07;97017.53;5092899;28;20226;-82
2020/12/02 04:30:12;;;;;;;10.57;6.73;;;;;;;-5.89;83.41;97016.25;5092836;28;20204;-83
2020/12/02 04:32:39;;;;;;;9.37;6.03;;;;;;;-5.87;83.73;97014.50;5092406;28;20446;-81
2020/12/02 04:35:07;;;;;;;7.27;5.27;;;;;;;-5.82;84.23;97019.47;5090593;28;20454;-82
2020/12/02 04:37:36;;;;;;;5.90;5.30;;;;;;;-5.78;84.37;97019.38;5089713;28;20598;-82
2020/12/02 04:40:06;;;;;;;6.47;5.67;;;;;;;-5.77;84.03;97020.22;5090158;28;20570;-83
2020/12/02 04:42:38;;;;;;;7.77;6.13;;;;;;;-5.63;84.10;97020.69;5090486;28;20946;-83
2020/12/02 04:45:07;;;;;;;11.83;7.67;;;;;;;-5.49;83.88;97015.19;5090163;28;20426;-82
2020/12/02 04:47:35;;;;;;;12.20;7.37;;;;;;;-5.21;83.28;97019.53;5090042;28;20442;-82
2020/12/02 04:50:05;;;;;;;9.27;7.07;;;;;;;-5.10;82.44;97018.31;5089983;28;20474;-82
2020/12/02 04:52:32;;;;;;;6.77;5.43;;;;;;;-4.98;82.23;97019.69;5090398;28;20889;-82
2020/12/02 04:54:59;;;;;;;6.87;5.60;;;;;;;-4.94;82.03;97015.31;5089992;28;20477;-82
2020/12/02 04:57:26;;;;;;;7.07;5.10;;;;;;;-4.89;81.99;97021.13;5091000;28;20438;-83
2020/12/02 04:59:54;;;;;;;5.63;5.00;;;;;;;-4.91;81.50;97025.50;5092803;28;20470;-83
2020/12/02 05:02:26;;;;;;;7.83;6.30;;;;;;;-4.90;81.87;97035.69;5092831;28;20942;-84
2020/12/02 05:04:55;;;;;;;8.03;6.10;;;;;;;-4.98;82.04;97026.56;5092990;28;20838;-83
2020/12/02 05:07:22;;;;;;;5.33;4.40;;;;;;;-4.82;82.02;97033.72;5092311;28;20486;-84
2020/12/02 05:09:56;;;;;;;5.30;4.57;;;;;;;-4.58;81.50;97033.88;5092178;28;20495;-83
2020/12/02 05:12:27;;;;;;;7.63;5.83;;;;;;;-4.64;80.90;97034.91;5092375;28;20981;-85
2020/12/02 05:15:09;;;;;;;6.70;5.23;;;;;;;-4.43;80.60;97033.41;5092060;28;20431;-83
2020/12/02 05:17:36;;;;;;;6.30;5.70;;;;;;;-4.36;79.87;97031.47;5092074;28;20469;-83
2020/12/02 05:20:13;;;;;;;5.30;4.50;;;;;;;-4.30;79.44;97037.22;5092322;28;20224;-83
2020/12/02 05:22:41;;;;;;;6.67;5.57;;;;;;;-4.26;79.87;97043.13;5092388;28;20418;-84
2020/12/02 05:25:19;;;;;;;9.60;7.87;;;;;;;-4.33;80.24;97041.63;5092170;28;20253;-84
2020/12/02 05:27:51;;;;;;;7.17;6.40;;;;;;;-4.07;79.31;97033.94;5092241;28;20177;-83
2020/12/02 05:30:26;;;;;;;9.47;6.27;;;;;;;-3.98;78.78;97037.06;5091979;28;20433;-84
2020/12/02 05:33:14;;;;;;;7.03;6.13;;;;;;;-4.21;79.29;97030.97;5092174;28;20587;-83
2020/12/02 05:35:45;;;;;;;7.97;6.27;;;;;;;-4.22;79.39;97034.44;5092021;28;20431;-83
2020/12/02 05:38:18;;;;;;;7.60;6.37;;;;;;;-4.33;79.71;97051.88;5091893;28;20215;-84
2020/12/02 05:40:46;;;;;;;10.83;6.57;;;;;;;-4.23;78.92;97052.44;5103040;28;20312;-84
2020/12/02 05:43:18;;;;;;;8.20;5.67;;;;;;;-4.54;79.44;97055.97;5110240;28;20468;-84
2020/12/02 05:45:49;;;;;;;5.80;4.53;;;;;;;-4.46;79.52;97060.88;5094535;28;20188;-84
2020/12/02 05:48:21;;;;;;;7.33;5.43;;;;;;;-4.36;79.25;97054.59;5095200;28;20894;-83
2020/12/02 05:50:49;;;;;;;5.43;3.93;;;;;;;-4.30;78.03;97057.75;5098642;28;20181;-84
2020/12/02 05:53:23;;;;;;;8.87;5.00;;;;;;;-4.24;77.62;97061.03;5097759;28;20257;-84
2020/12/02 05:55:51;;;;;;;10.33;6.60;;;;;;;-4.33;78.20;97057.88;5098654;28;20184;-84
2020/12/02 05:58:21;;;;;;;19.17;9.73;;;;;;;-4.45;79.31;97057.41;5097827;28;20454;-85
2020/12/02 06:00:49;;;;;;;11.37;8.33;;;;;;;-4.37;79.82;97058.00;5097042;28;20477;-84
2020/12/02 06:03:19;;;;;;;12.70;10.13;;;;;;;-4.35;79.84;97051.94;5098933;28;20226;-84
2020/12/02 06:05:46;;;;;;;19.47;12.97;;;;;;;-4.11;79.15;97045.19;5099391;28;20189;-84
2020/12/02 06:08:35;;;;;;;20.17;12.57;;;;;;;-3.73;78.26;97042.25;5098267;28;20201;-84
2020/12/02 06:11:40;;;;;;;10.90;8.47;;;;;;;-3.74;78.28;97051.69;5095599;28;20193;-84
2020/12/02 06:14:30;;;;;;;17.37;11.07;;;;;;;-3.69;78.48;97046.38;5093304;28;20663;-84
2020/12/02 06:16:58;;;;;;;8.53;7.63;;;;;;;-3.55;78.23;97046.72;5095823;28;20235;-84
2020/12/02 06:19:31;;;;;;;11.70;7.80;;;;;;;-3.53;78.42;97051.81;5095898;28;20212;-84
2020/12/02 06:21:59;;;;;;;13.13;9.40;;;;;;;-3.31;78.30;97054.47;5095531;28;20267;-84
2020/12/02 06:24:39;;;;;;;9.10;7.07;;;;;;;-3.44;79.04;97054.06;5095931;28;20192;-84
2020/12/02 06:27:38;;;;;;;5.70;5.10;;;;;;;-3.35;78.82;97053.75;5095605;28;20238;-85
2020/12/02 06:30:18;;;;;;;37.20;24.90;;;;;;;-3.36;78.06;97050.34;5095968;28;20235;-84
2020/12/02 06:33:01;;;;;;;9.60;7.83;;;;;;;-3.18;75.59;97050.59;5096111;28;20293;-84
2020/12/02 06:35:29;;;;;;;31.47;19.33;;;;;;;-3.44;77.70;97049.75;5095299;28;20188;-84
2020/12/02 06:38:23;;;;;;;35.27;29.73;;;;;;;-3.18;77.50;97045.44;5095084;28;20204;-84
2020/12/02 06:41:22;;;;;;;18.27;14.00;;;;;;;-3.09;77.48;97045.09;5095107;28;20295;-85
2020/12/02 06:43:55;;;;;;;13.90;10.73;;;;;;;-2.93;77.46;97047.94;5095585;28;20196;-84
2020/12/02 06:47:06;;;;;;;9.57;6.50;;;;;;;-2.87;78.15;97034.88;5094958;28;20210;-84
2020/12/02 06:49:36;;;;;;;9.97;6.90;;;;;;;-2.54;78.29;97040.44;5095097;28;20468;-85
2020/12/02 06:52:06;;;;;;;28.77;17.70;;;;;;;-2.41;78.52;97040.81;5095223;28;20185;-85
2020/12/02 06:54:36;;;;;;;9.47;8.23;;;;;;;-2.20;78.14;97037.38;5095586;28;20235;-85
2020/12/02 06:57:14;;;;;;;6.43;5.30;;;;;;;-2.18;76.81;97043.31;5094945;28;20195;-85
2020/12/02 06:59:52;;;;;;;7.00;5.73;;;;;;;-2.10;76.19;97049.88;5093753;28;20295;-84
2020/12/02 07:02:30;;;;;;;6.07;4.50;;;;;;;-1.93;76.44;97045.72;5094501;28;20229;-85
2020/12/02 07:05:00;;;;;;;6.43;5.83;;;;;;;-1.92;75.54;97039.66;5094380;28;20188;-85
2020/12/02 07:07:26;;;;;;;6.93;4.87;;;;;;;-1.57;75.01;97049.38;5094580;28;20255;-85
2020/12/02 07:09:53;;;;;;;6.43;5.83;;;;;;;-1.38;73.18;97060.59;5094324;28;20228;-84
2020/12/02 07:12:23;;;;;;;8.63;5.97;;;;;;;-1.27;73.79;97060.97;5094242;28;20200;-85
2020/12/02 07:14:50;;;;;;;7.57;5.53;;;;;;;-0.95;73.78;97050.97;5094733;28;20647;-83
2020/12/02 07:17:22;;;;;;;5.90;5.23;;;;;;;-0.60;71.93;97045.94;5094348;28;20690;-82
2020/12/02 07:19:49;;;;;;;6.97;4.63;;;;;;;-0.31;70.86;97053.19;5094281;28;20204;-83
2020/12/02 07:22:21;;;;;;;12.87;11.60;;;;;;;-0.33;70.52;97054.97;5094173;28;20196;-85
2020/12/02 07:24:50;;;;;;;5.67;5.07;;;;;;;-0.30;71.70;97054.84;5094836;28;20246;-85
2020/12/02 07:27:20;;;;;;;5.93;4.97;;;;;;;-0.24;70.79;97051.16;5094365;28;20754;-86
2020/12/02 07:29:58;;;;;;;7.10;6.40;;;;;;;0.01;70.69;97052.53;5095028;28;20252;-85
2020/12/02 07:32:25;;;;;;;7.37;6.53;;;;;;;0.12;70.93;97058.84;5094418;28;20613;-85
2020/12/02 07:35:01;;;;;;;6.87;5.30;;;;;;;0.37;70.43;97044.72;5094267;28;20704;-86
2020/12/02 07:37:29;;;;;;;7.47;6.70;;;;;;;0.51;69.89;97055.19;5093804;28;20180;-85
2020/12/02 07:39:58;;;;;;;6.10;5.33;;;;;;;0.47;70.18;97057.09;5094122;28;20259;-87
2020/12/02 07:42:29;;;;;;;6.43;5.83;;;;;;;0.42;70.49;97059.09;5094356;28;20851;-86
2020/12/02 07:45:04;;;;;;;7.30;5.67;;;;;;;0.62;70.05;97055.47;5094576;28;20181;-87
2020/12/02 07:47:32;;;;;;;5.27;4.23;;;;;;;0.70;70.69;97057.69;5095030;28;20184;-88
2020/12/02 07:50:04;;;;;;;8.67;6.27;;;;;;;0.80;69.90;97052.88;5094452;28;20188;-89
2020/12/02 07:52:39;;;;;;;8.23;6.33;;;;;;;1.02;69.41;97044.81;5094609;28;20188;-88
2020/12/02 07:55:07;;;;;;;6.67;5.93;;;;;;;1.11;69.32;97052.94;5094088;28;20235;-88
2020/12/02 07:57:35;;;;;;;3.37;3.07;;;;;;;0.95;69.12;97052.91;5094451;28;20184;-88
2020/12/02 08:00:26;;;;;;;3.97;3.00;;;;;;;0.93;69.52;97051.31;5094224;28;20242;-88
2020/12/02 08:02:53;;;;;;;3.40;3.07;;;;;;;1.35;68.42;97042.19;5095118;28;20667;-86
2020/12/02 08:05:33;;;;;;;3.40;3.13;;;;;;;1.64;68.14;97046.63;5095057;28;20192;-86
2020/12/02 08:08:00;;;;;;;4.27;2.97;;;;;;;1.94;67.42;97053.63;5099432;28;20215;-90
2020/12/02 08:10:31;;;;;;;6.10;5.50;;;;;;;2.01;67.59;97054.94;5098576;28;20717;-88
2020/12/02 08:13:02;;;;;;;10.50;4.27;;;;;;;2.33;66.47;97049.66;5097824;28;20586;-88
2020/12/02 08:15:29;;;;;;;5.77;4.33;;;;;;;2.22;67.26;97049.44;5097958;28;20196;-89
2020/12/02 08:18:03;;;;;;;4.60;3.33;;;;;;;2.49;67.25;97058.22;5097978;28;20204;-89
2020/12/02 08:20:34;;;;;;;10.87;8.70;;;;;;;2.88;66.18;97061.16;5094696;28;20215;-89
2020/12/02 08:23:09;;;;;;;19.47;14.43;;;;;;;2.68;66.09;97055.38;5096945;28;20185;-89
2020/12/02 08:25:39;;;;;;;7.53;6.73;;;;;;;2.63;65.61;97060.00;5095258;28;20184;-89
2020/12/02 08:28:10;;;;;;;5.33;4.83;;;;;;;2.92;64.98;97065.25;5093796;28;20193;-90
2020/12/02 08:30:38;;;;;;;4.00;3.60;;;;;;;3.07;63.27;97059.94;5093577;28;20187;-89
2020/12/02 08:33:10;;;;;;;4.43;3.37;;;;;;;3.48;63.23;97059.19;5093521;28;20314;-89
2020/12/02 08:35:40;;;;;;;4.17;3.73;;;;;;;4.05;61.53;97048.63;5094024;28;20257;-89
2020/12/02 08:38:15;;;;;;;4.17;3.77;;;;;;;4.41;59.95;97041.94;5093796;28;20199;-89
2020/12/02 08:40:47;;;;;;;4.13;3.57;;;;;;;4.67;58.64;97045.41;5093426;28;20207;-90
2020/12/02 08:43:22;;;;;;;3.57;3.27;;;;;;;4.84;56.75;97033.84;5093764;28;20569;-90
2020/12/02 08:45:55;;;;;;;3.80;3.50;;;;;;;4.89;57.28;97034.38;5093408;28;20184;-90
2020/12/02 08:48:22;;;;;;;3.37;2.90;;;;;;;4.04;60.82;97041.72;5093291;28;20192;-90
2020/12/02 08:50:50;;;;;;;4.80;4.03;;;;;;;4.03;60.74;97042.69;5093382;28;20189;-90
2020/12/02 08:53:26;;;;;;;5.47;4.97;;;;;;;4.12;60.74;97035.19;5092977;28;20236;-89
2020/12/02 08:55:54;;;;;;;3.63;3.33;;;;;;;3.61;61.49;97035.03;5093321;28;20184;-90
2020/12/02 08:58:22;;;;;;;5.83;4.70;;;;;;;3.37;61.76;97037.41;5093563;28;20620;-89
2020/12/02 09:00:49;;;;;;;3.70;3.40;;;;;;;3.22;60.83;97033.97;5093107;28;20273;-89
2020/12/02 09:03:17;;;;;;;6.03;4.07;;;;;;;3.44;61.33;97034.31;5093331;28;20254;-90
2020/12/02 09:05:44;;;;;;;4.33;3.90;;;;;;;3.65;60.99;97028.69;5093206;28;20197;-90
2020/12/02 09:08:11;;;;;;;5.20;4.70;;;;;;;3.93;59.72;97020.78;5093266;28;20199;-89
2020/12/02 09:10:38;;;;;;;4.73;4.23;;;;;;;4.08;59.82;97015.53;5093525;28;20657;-89
2020/12/02 09:13:06;;;;;;;3.57;3.27;;;;;;;4.41;58.46;97020.28;5093040;28;20287;-90
2020/12/02 09:15:33;;;;;;;3.67;3.37;;;;;;;3.96;60.08;97011.97;5093034;28;20202;-90
2020/12/02 09:18:00;;;;;;;4.60;3.27;;;;;;;3.77;60.49;97012.31;5093704;28;20205;-90
2020/12/02 09:20:27;;;;;;;4.20;3.80;;;;;;;4.08;58.73;97003.34;5092988;28;20243;-89
2020/12/02 09:22:54;;;;;;;4.30;3.80;;;;;;;3.94;58.98;96998.22;5093765;28;20212;-90
2020/12/02 09:25:21;;;;;;;4.87;2.93;;;;;;;3.71;59.75;96999.72;5097080;28;20196;-90
2020/12/02 09:27:48;;;;;;;3.57;3.00;;;;;;;4.51;58.69;96993.53;5097272;28;20200;-90
2020/12/02 09:30:16;;;;;;;4.07;3.20;;;;;;;4.68;57.39;96999.38;5097195;28;20265;-90
2020/12/02 09:32:43;;;;;;;2.87;2.57;;;;;;;4.64;56.99;96992.69;5097058;28;20184;-90
2020/12/02 09:35:10;;;;;;;3.83;2.90;;;;;;;4.81;58.21;96989.78;5097187;28;20195;-89
2020/12/02 09:37:37;;;;;;;3.90;3.60;;;;;;;5.20;56.26;96987.97;5097217;28;20192;-90
2020/12/02 09:40:07;;;;;;;6.20;4.67;;;;;;;5.26;56.81;96984.91;5097507;28;20638;-90
2020/12/02 09:42:55;;;;;;;3.67;3.27;;;;;;;5.71;54.59;96991.25;5096894;28;20249;-90
2020/12/02 09:45:38;;;;;;;4.17;3.07;;;;;;;5.93;54.51;96981.88;5096821;28;20184;-90
2020/12/02 09:48:14;;;;;;;4.07;3.50;;;;;;;5.80;54.96;96983.69;5097045;28;20559;-90
2020/12/02 09:50:41;;;;;;;2.90;2.57;;;;;;;5.58;54.91;96981.81;5097017;28;20184;-90
2020/12/02 09:53:17;;;;;;;3.23;2.63;;;;;;;5.33;56.22;96978.31;5096666;28;20189;-89
2020/12/02 09:55:44;;;;;;;2.43;2.23;;;;;;;5.63;54.66;96977.91;5096628;28;20196;-90
2020/12/02 09:58:12;;;;;;;3.03;2.73;;;;;;;5.39;55.25;96974.47;5096543;28;20253;-90
2020/12/02 10:00:40;;;;;;;2.40;1.97;;;;;;;5.34;55.37;96984.38;5096430;28;20220;-90
2020/12/02 10:03:43;;;;;;;2.63;2.43;;;;;;;5.37;55.75;96969.38;5096657;28;20196;-90
2020/12/02 10:06:27;;;;;;;3.03;2.50;;;;;;;5.60;54.34;96967.69;5096911;28;20184;-90
2020/12/02 10:09:21;;;;;;;3.13;2.87;;;;;;;5.97;54.45;96975.50;5097052;28;20188;-90
2020/12/02 10:12:00;;;;;;;4.10;3.53;;;;;;;6.02;53.17;96967.31;5096580;28;20181;-90
2020/12/02 10:14:57;;;;;;;2.83;2.63;;;;;;;6.25;54.08;96971.69;5096579;28;20195;-90
2020/12/02 10:17:46;;;;;;;4.97;4.57;;;;;;;6.56;53.58;96964.16;5096172;28;20177;-89
2020/12/02 10:20:28;;;;;;;6.73;3.70;;;;;;;7.10;50.89;96960.81;5096453;28;20224;-90
2020/12/02 10:23:10;;;;;;;8.17;6.93;;;;;;;7.07;50.39;96968.94;5099056;28;20696;-90
2020/12/02 10:26:12;;;;;;;3.30;3.00;;;;;;;7.53;48.48;96966.13;5096589;28;20246;-91
2020/12/02 10:28:47;;;;;;;3.00;2.80;;;;;;;7.77;49.12;96960.69;5060012;28;20196;-90
2020/12/02 10:31:20;;;;;;;10.50;6.80;;;;;;;8.00;48.27;96955.38;5096281;28;20651;-90
2020/12/02 10:34:00;;;;;;;3.47;3.17;;;;;;;7.85;47.70;96955.66;5096317;28;20706;-91
2020/12/02 10:36:32;;;;;;;12.43;9.37;;;;;;;7.72;49.16;96959.41;5096118;28;20215;-91
2020/12/02 10:39:01;;;;;;;10.93;9.70;;;;;;;7.89;47.70;96956.25;5095876;28;20204;-91
2020/12/02 10:41:48;;;;;;;10.87;9.80;;;;;;;7.53;48.37;96955.66;5095866;28;20224;-90
2020/12/02 10:44:26;;;;;;;3.03;2.73;;;;;;;8.16;46.93;96953.16;5095850;28;20208;-91
2020/12/02 10:47:26;;;;;;;13.30;10.53;;;;;;;8.41;47.33;96951.97;5095811;28;20191;-91
2020/12/02 10:49:56;;;;;;;13.93;11.13;;;;;;;7.47;49.01;96957.94;5090710;28;20254;-90
2020/12/02 10:52:24;;;;;;;21.30;19.00;;;;;;;7.37;50.97;96952.59;5095680;28;20847;-91
2020/12/02 10:54:51;;;;;;;18.80;12.70;;;;;;;7.68;51.55;96956.19;5095385;28;20232;-90
2020/12/02 10:57:22;;;;;;;10.43;9.43;;;;;;;7.94;50.17;96953.28;5095383;28;20668;-91
2020/12/02 10:59:53;;;;;;;9.23;8.27;;;;;;;8.03;48.89;96948.09;5095301;28;20189;-90
2020/12/02 11:02:23;;;;;;;30.40;22.13;;;;;;;7.49;49.91;96946.41;5095474;28;20242;-90
2020/12/02 11:04:50;;;;;;;9.00;8.00;;;;;;;7.84;49.24;96947.94;5095225;28;20192;-91
2020/12/02 11:07:36;;;;;;;30.47;20.00;;;;;;;8.41;47.13;96943.28;5095389;28;20204;-90
2020/12/02 11:10:07;;;;;;;30.77;20.80;;;;;;;8.34;47.37;96941.13;5095096;28;20184;-92
2020/12/02 11:12:49;;;;;;;45.00;30.20;;;;;;;8.04;48.48;96943.72;5095689;28;20192;-90
2020/12/02 11:15:27;;;;;;;15.13;12.20;;;;;;;8.08;48.33;96935.47;5095293;28;20199;-90
2020/12/02 11:18:11;;;;;;;10.83;9.67;;;;;;;8.72;48.36;96934.50;5097028;28;20180;-90
2020/12/02 11:20:46;;;;;;;10.27;7.83;;;;;;;8.15;48.64;96920.09;5095589;28;20747;-90
2020/12/02 11:23:28;;;;;;;8.30;7.30;;;;;;;8.13;48.83;96926.41;5095540;28;20188;-92
2020/12/02 11:26:06;;;;;;;7.60;6.77;;;;;;;8.75;46.18;96921.13;5095276;28;20573;-90
2020/12/02 11:28:32;;;;;;;7.37;6.63;;;;;;;7.93;47.06;96928.03;5095508;28;20207;-89
2020/12/02 11:31:09;;;;;;;8.97;7.67;;;;;;;8.02;47.52;96929.91;5094782;28;20230;-90
2020/12/02 11:33:58;;;;;;;6.77;6.07;;;;;;;8.37;46.72;96910.44;5095101;28;20203;-90
2020/12/02 11:36:46;;;;;;;12.53;7.00;;;;;;;8.26;48.49;96904.28;5094929;28;20246;-89
2020/12/02 11:39:26;;;;;;;9.90;8.90;;;;;;;8.34;47.81;96906.25;5094620;28;20267;-90
2020/12/02 11:41:58;;;;;;;8.47;7.17;;;;;;;8.15;48.30;96903.53;5094531;28;20204;-90
2020/12/02 11:44:37;;;;;;;13.27;7.73;;;;;;;8.36;46.84;96906.16;5094533;28;20203;-89
2020/12/02 11:47:16;;;;;;;14.50;7.77;;;;;;;8.30;47.50;96905.69;5094034;28;20235;-90
2020/12/02 11:49:52;;;;;;;12.63;8.53;;;;;;;8.32;48.89;96901.16;5094613;28;20200;-90
2020/12/02 11:52:33;;;;;;;8.83;7.77;;;;;;;7.94;49.06;96904.38;5094845;28;20234;-89
2020/12/02 11:55:07;;;;;;;8.43;7.27;;;;;;;8.02;49.45;96903.72;5094250;28;20263;-90